This is the latest recevied weather packets stored in our database for station/object N9UMJ-12. If no packets are shown the sender has not sent any weather packets the latest 10 day(s).
| Time | Temp. | Humidity | Pressure | Rain* | Wind** | Luminosity | Snow |
|---|---|---|---|---|---|---|---|
| 1777553719 | 7.78° C | 85% | 1018.5 hPa | 0 mm | - | 261 W/m² | - |
| 1777553119 | 7.78° C | 87% | 1018.7 hPa | 0 mm | - | 230 W/m² | - |
| 1777538726 | 6.11° C | 86% | 1016.8 hPa | 0 mm | - | 0 W/m² | - |
| 1777538126 | 6.67° C | 84% | 1016.7 hPa | 0 mm | - | 0 W/m² | - |
| 1777534539 | 6.67° C | 79% | 1016.6 hPa | 0 mm | - | 0 W/m² | - |
| 1777533319 | 6.67° C | 83% | 1016.7 hPa | 0 mm | - | 0 W/m² | - |
| 1777527318 | 9.44° C | 70% | 1017 hPa | 0 mm | - | 0 W/m² | - |
| 1777523719 | 10.56° C | 70% | 1016.9 hPa | 0 mm | - | 0 W/m² | - |
| 1777517720 | 11.67° C | 71% | 1016.4 hPa | 0 mm | - | 0 W/m² | - |
| 1777512339 | 12.78° C | 70% | 1015.1 hPa | 0 mm | - | 0 W/m² | - |
| 1777511116 | 13.33° C | 67% | 1014.6 hPa | 0 mm | - | 0 W/m² | - |
| 1777506957 | 15.56° C | 62% | 1013.7 hPa | 0 mm | - | 28 W/m² | - |
| 1777500319 | 17.22° C | 60% | 1013.7 hPa | 0 mm | - | 437 W/m² | - |
| 1777496720 | 17.78° C | 61% | 1013.2 hPa | 0 mm | - | 504 W/m² | - |
| 1777493718 | 16.67° C | 64% | 1013.6 hPa | 0 mm | - | 779 W/m² | - |
| 1777493118 | 16.67° C | 66% | 1013.7 hPa | 0 mm | - | 192 W/m² | - |
| 1777488919 | 17.22° C | 72% | 1013.6 hPa | 0 mm | - | 569 W/m² | - |
| 1777483518 | 16.11° C | 82% | 1013.6 hPa | 0 mm | - | 738 W/m² | - |
| 1777479319 | 15° C | 89% | 1013.3 hPa | 0 mm | - | 512 W/m² | - |
| 1777478119 | 15° C | 90% | 1013.4 hPa | 0 mm | - | 198 W/m² | - |
| 1777476940 | 14.44° C | 93% | 1013.3 hPa | 0 mm | - | 642 W/m² | - |
| 1777475720 | 13.89° C | 95% | 1013.3 hPa | 0 mm | - | 208 W/m² | - |
| 1777475117 | 13.89° C | 97% | 1013.1 hPa | 0 mm | - | 252 W/m² | - |
| 1777467329 | 12.78° C | 98% | 1012.3 hPa | 0.25 mm | - | 50 W/m² | - |
| 1777466729 | 12.78° C | 98% | 1012.4 hPa | 0.25 mm | - | 45 W/m² | - |
* Rain latest hour (hover to see other rain measurements)
** Current wind speed in m/s (hover to see current wind gust speed)